sensor_id;sensor_type;location;lat;lon;timestamp;P1;durP1;ratioP1;P2;durP2;ratioP2
15968;SDS011;8085;53.472;9.794;2024-02-21T00:00:53;35.05;;;11.27;;
15968;SDS011;8085;53.472;9.794;2024-02-21T00:03:22;28.80;;;11.73;;
15968;SDS011;8085;53.472;9.794;2024-02-21T00:05:48;30.40;;;11.40;;
15968;SDS011;8085;53.472;9.794;2024-02-21T00:08:16;33.03;;;11.95;;
15968;SDS011;8085;53.472;9.794;2024-02-21T00:10:43;30.52;;;11.93;;
15968;SDS011;8085;53.472;9.794;2024-02-21T00:13:10;31.20;;;11.88;;
15968;SDS011;8085;53.472;9.794;2024-02-21T00:15:37;29.83;;;11.77;;
15968;SDS011;8085;53.472;9.794;2024-02-21T00:18:04;36.90;;;11.93;;
15968;SDS011;8085;53.472;9.794;2024-02-21T00:20:32;30.23;;;11.25;;
15968;SDS011;8085;53.472;9.794;2024-02-21T00:22:59;26.95;;;12.63;;
15968;SDS011;8085;53.472;9.794;2024-02-21T00:25:26;32.45;;;12.23;;
15968;SDS011;8085;53.472;9.794;2024-02-21T00:27:53;34.13;;;12.93;;
15968;SDS011;8085;53.472;9.794;2024-02-21T00:30:20;32.95;;;12.35;;
15968;SDS011;8085;53.472;9.794;2024-02-21T00:32:47;35.95;;;13.02;;
15968;SDS011;8085;53.472;9.794;2024-02-21T00:35:14;33.40;;;12.93;;
15968;SDS011;8085;53.472;9.794;2024-02-21T00:37:42;35.55;;;12.45;;
15968;SDS011;8085;53.472;9.794;2024-02-21T00:40:09;30.25;;;12.30;;
15968;SDS011;8085;53.472;9.794;2024-02-21T00:42:36;29.85;;;12.90;;
15968;SDS011;8085;53.472;9.794;2024-02-21T00:45:04;32.65;;;13.00;;
15968;SDS011;8085;53.472;9.794;2024-02-21T00:47:31;35.88;;;13.90;;
15968;SDS011;8085;53.472;9.794;2024-02-21T00:49:58;31.85;;;12.70;;
15968;SDS011;8085;53.472;9.794;2024-02-21T00:52:25;31.45;;;12.82;;
15968;SDS011;8085;53.472;9.794;2024-02-21T00:54:53;30.80;;;13.80;;
15968;SDS011;8085;53.472;9.794;2024-02-21T00:57:20;34.88;;;12.88;;
15968;SDS011;8085;53.472;9.794;2024-02-21T00:59:49;30.02;;;13.07;;
15968;SDS011;8085;53.472;9.794;2024-02-21T01:02:15;33.55;;;13.43;;
15968;SDS011;8085;53.472;9.794;2024-02-21T01:04:43;32.10;;;12.88;;
15968;SDS011;8085;53.472;9.794;2024-02-21T01:07:09;30.70;;;13.60;;
15968;SDS011;8085;53.472;9.794;2024-02-21T01:09:36;35.95;;;14.25;;
15968;SDS011;8085;53.472;9.794;2024-02-21T01:12:05;30.92;;;13.98;;
15968;SDS011;8085;53.472;9.794;2024-02-21T01:14:32;40.92;;;14.23;;
15968;SDS011;8085;53.472;9.794;2024-02-21T01:16:59;33.28;;;14.20;;
15968;SDS011;8085;53.472;9.794;2024-02-21T01:19:26;36.67;;;14.60;;
15968;SDS011;8085;53.472;9.794;2024-02-21T01:21:53;34.33;;;14.68;;
15968;SDS011;8085;53.472;9.794;2024-02-21T01:24:20;34.33;;;14.82;;
15968;SDS011;8085;53.472;9.794;2024-02-21T01:26:47;38.55;;;13.88;;
15968;SDS011;8085;53.472;9.794;2024-02-21T01:29:15;42.50;;;15.95;;
15968;SDS011;8085;53.472;9.794;2024-02-21T01:31:42;32.38;;;14.52;;
15968;SDS011;8085;53.472;9.794;2024-02-21T01:34:08;39.95;;;14.43;;
15968;SDS011;8085;53.472;9.794;2024-02-21T01:36:35;34.42;;;14.52;;
15968;SDS011;8085;53.472;9.794;2024-02-21T01:39:02;35.38;;;14.02;;
15968;SDS011;8085;53.472;9.794;2024-02-21T01:41:30;36.33;;;14.80;;
15968;SDS011;8085;53.472;9.794;2024-02-21T01:43:57;38.33;;;15.20;;
15968;SDS011;8085;53.472;9.794;2024-02-21T01:46:25;37.67;;;15.52;;
15968;SDS011;8085;53.472;9.794;2024-02-21T01:48:54;34.85;;;15.50;;
15968;SDS011;8085;53.472;9.794;2024-02-21T01:51:22;37.70;;;15.43;;
15968;SDS011;8085;53.472;9.794;2024-02-21T01:53:49;39.08;;;15.50;;
15968;SDS011;8085;53.472;9.794;2024-02-21T01:56:18;39.13;;;16.92;;
15968;SDS011;8085;53.472;9.794;2024-02-21T01:58:45;37.28;;;15.93;;
15968;SDS011;8085;53.472;9.794;2024-02-21T02:01:14;39.40;;;15.82;;
15968;SDS011;8085;53.472;9.794;2024-02-21T02:03:43;44.72;;;17.25;;
15968;SDS011;8085;53.472;9.794;2024-02-21T02:06:11;43.88;;;17.50;;
15968;SDS011;8085;53.472;9.794;2024-02-21T02:08:39;39.38;;;16.00;;
15968;SDS011;8085;53.472;9.794;2024-02-21T02:11:05;41.30;;;17.77;;
15968;SDS011;8085;53.472;9.794;2024-02-21T02:13:33;41.33;;;17.02;;
15968;SDS011;8085;53.472;9.794;2024-02-21T02:15:59;42.28;;;17.17;;
15968;SDS011;8085;53.472;9.794;2024-02-21T02:18:26;51.10;;;18.02;;
15968;SDS011;8085;53.472;9.794;2024-02-21T02:20:54;43.55;;;17.48;;
15968;SDS011;8085;53.472;9.794;2024-02-21T02:23:24;43.03;;;17.77;;
15968;SDS011;8085;53.472;9.794;2024-02-21T02:25:52;43.50;;;17.23;;
15968;SDS011;8085;53.472;9.794;2024-02-21T02:28:19;44.58;;;18.23;;
15968;SDS011;8085;53.472;9.794;2024-02-21T02:30:47;43.97;;;18.48;;
15968;SDS011;8085;53.472;9.794;2024-02-21T02:33:14;38.78;;;16.50;;
15968;SDS011;8085;53.472;9.794;2024-02-21T02:35:42;41.90;;;16.05;;
15968;SDS011;8085;53.472;9.794;2024-02-21T02:38:09;42.00;;;16.60;;
15968;SDS011;8085;53.472;9.794;2024-02-21T02:40:38;40.28;;;16.33;;
15968;SDS011;8085;53.472;9.794;2024-02-21T02:43:05;40.13;;;16.35;;
15968;SDS011;8085;53.472;9.794;2024-02-21T02:45:32;44.17;;;16.85;;
15968;SDS011;8085;53.472;9.794;2024-02-21T02:47:59;40.55;;;15.43;;
15968;SDS011;8085;53.472;9.794;2024-02-21T02:50:27;36.33;;;16.50;;
15968;SDS011;8085;53.472;9.794;2024-02-21T02:52:54;39.35;;;16.25;;
15968;SDS011;8085;53.472;9.794;2024-02-21T02:55:21;36.78;;;15.20;;
15968;SDS011;8085;53.472;9.794;2024-02-21T02:57:50;44.67;;;17.08;;
15968;SDS011;8085;53.472;9.794;2024-02-21T03:00:17;39.72;;;16.00;;
15968;SDS011;8085;53.472;9.794;2024-02-21T03:02:46;43.75;;;16.13;;
15968;SDS011;8085;53.472;9.794;2024-02-21T03:05:15;45.45;;;15.45;;
15968;SDS011;8085;53.472;9.794;2024-02-21T03:07:43;39.67;;;15.38;;
15968;SDS011;8085;53.472;9.794;2024-02-21T03:10:11;38.10;;;14.73;;
15968;SDS011;8085;53.472;9.794;2024-02-21T03:12:38;34.42;;;14.05;;
15968;SDS011;8085;53.472;9.794;2024-02-21T03:15:07;36.88;;;14.32;;
15968;SDS011;8085;53.472;9.794;2024-02-21T03:17:35;38.67;;;14.63;;
15968;SDS011;8085;53.472;9.794;2024-02-21T03:20:01;42.05;;;14.52;;
15968;SDS011;8085;53.472;9.794;2024-02-21T03:22:30;38.90;;;14.35;;
15968;SDS011;8085;53.472;9.794;2024-02-21T03:24:58;39.22;;;14.52;;
15968;SDS011;8085;53.472;9.794;2024-02-21T03:27:25;38.80;;;13.70;;
15968;SDS011;8085;53.472;9.794;2024-02-21T03:29:51;31.73;;;13.10;;
15968;SDS011;8085;53.472;9.794;2024-02-21T03:32:20;38.08;;;13.68;;
15968;SDS011;8085;53.472;9.794;2024-02-21T03:34:47;35.67;;;13.50;;
15968;SDS011;8085;53.472;9.794;2024-02-21T03:37:14;30.65;;;13.52;;
15968;SDS011;8085;53.472;9.794;2024-02-21T03:39:41;33.33;;;13.27;;
15968;SDS011;8085;53.472;9.794;2024-02-21T03:42:08;29.38;;;12.50;;
15968;SDS011;8085;53.472;9.794;2024-02-21T03:44:35;34.83;;;13.93;;
15968;SDS011;8085;53.472;9.794;2024-02-21T03:47:02;32.42;;;13.23;;
15968;SDS011;8085;53.472;9.794;2024-02-21T03:49:31;31.38;;;13.82;;
15968;SDS011;8085;53.472;9.794;2024-02-21T03:51:57;28.63;;;12.77;;
15968;SDS011;8085;53.472;9.794;2024-02-21T03:54:24;31.48;;;13.75;;
15968;SDS011;8085;53.472;9.794;2024-02-21T03:56:51;34.72;;;13.90;;
15968;SDS011;8085;53.472;9.794;2024-02-21T03:59:18;28.70;;;13.00;;
15968;SDS011;8085;53.472;9.794;2024-02-21T04:01:45;29.95;;;13.50;;
15968;SDS011;8085;53.472;9.794;2024-02-21T04:04:12;30.00;;;13.65;;
15968;SDS011;8085;53.472;9.794;2024-02-21T04:06:46;34.38;;;14.38;;
15968;SDS011;8085;53.472;9.794;2024-02-21T04:09:14;37.95;;;14.98;;
15968;SDS011;8085;53.472;9.794;2024-02-21T04:11:41;30.70;;;13.45;;
15968;SDS011;8085;53.472;9.794;2024-02-21T04:14:08;39.20;;;13.70;;
15968;SDS011;8085;53.472;9.794;2024-02-21T04:16:36;29.88;;;13.93;;
15968;SDS011;8085;53.472;9.794;2024-02-21T04:19:03;30.88;;;13.93;;
15968;SDS011;8085;53.472;9.794;2024-02-21T04:21:30;37.05;;;13.70;;
15968;SDS011;8085;53.472;9.794;2024-02-21T04:23:58;34.22;;;14.40;;
15968;SDS011;8085;53.472;9.794;2024-02-21T04:26:25;31.20;;;14.20;;
15968;SDS011;8085;53.472;9.794;2024-02-21T04:28:52;35.83;;;14.25;;
15968;SDS011;8085;53.472;9.794;2024-02-21T04:31:19;35.63;;;14.95;;
15968;SDS011;8085;53.472;9.794;2024-02-21T04:33:46;36.00;;;13.75;;
15968;SDS011;8085;53.472;9.794;2024-02-21T04:36:13;34.90;;;14.80;;
15968;SDS011;8085;53.472;9.794;2024-02-21T04:38:40;33.88;;;14.02;;
15968;SDS011;8085;53.472;9.794;2024-02-21T04:41:08;35.88;;;14.32;;
15968;SDS011;8085;53.472;9.794;2024-02-21T04:43:35;29.92;;;13.93;;
15968;SDS011;8085;53.472;9.794;2024-02-21T04:46:02;28.67;;;13.73;;
15968;SDS011;8085;53.472;9.794;2024-02-21T04:48:29;31.23;;;13.70;;
15968;SDS011;8085;53.472;9.794;2024-02-21T04:50:55;29.73;;;14.25;;
15968;SDS011;8085;53.472;9.794;2024-02-21T04:53:22;32.47;;;14.00;;
15968;SDS011;8085;53.472;9.794;2024-02-21T04:55:49;26.88;;;13.52;;
15968;SDS011;8085;53.472;9.794;2024-02-21T04:58:17;34.72;;;13.70;;
15968;SDS011;8085;53.472;9.794;2024-02-21T05:00:44;31.40;;;13.30;;
15968;SDS011;8085;53.472;9.794;2024-02-21T05:03:11;29.70;;;14.40;;
15968;SDS011;8085;53.472;9.794;2024-02-21T05:05:38;30.05;;;13.60;;
15968;SDS011;8085;53.472;9.794;2024-02-21T05:08:05;34.53;;;14.93;;
15968;SDS011;8085;53.472;9.794;2024-02-21T05:10:32;33.65;;;14.13;;
15968;SDS011;8085;53.472;9.794;2024-02-21T05:12:59;30.10;;;13.18;;
15968;SDS011;8085;53.472;9.794;2024-02-21T05:15:27;33.60;;;14.60;;
15968;SDS011;8085;53.472;9.794;2024-02-21T05:17:54;31.85;;;14.07;;
15968;SDS011;8085;53.472;9.794;2024-02-21T05:20:21;25.92;;;13.30;;
15968;SDS011;8085;53.472;9.794;2024-02-21T05:22:47;28.33;;;13.38;;
15968;SDS011;8085;53.472;9.794;2024-02-21T05:25:14;29.63;;;12.65;;
15968;SDS011;8085;53.472;9.794;2024-02-21T05:27:41;28.45;;;12.48;;
15968;SDS011;8085;53.472;9.794;2024-02-21T05:30:08;28.35;;;12.40;;
15968;SDS011;8085;53.472;9.794;2024-02-21T05:32:37;22.10;;;11.27;;
15968;SDS011;8085;53.472;9.794;2024-02-21T05:35:04;22.40;;;11.23;;
15968;SDS011;8085;53.472;9.794;2024-02-21T05:37:31;22.70;;;11.20;;
15968;SDS011;8085;53.472;9.794;2024-02-21T05:39:58;28.23;;;12.05;;
15968;SDS011;8085;53.472;9.794;2024-02-21T05:42:25;26.42;;;11.50;;
15968;SDS011;8085;53.472;9.794;2024-02-21T05:44:52;22.77;;;10.70;;
15968;SDS011;8085;53.472;9.794;2024-02-21T05:47:18;19.67;;;11.10;;
15968;SDS011;8085;53.472;9.794;2024-02-21T05:49:47;21.55;;;11.07;;
15968;SDS011;8085;53.472;9.794;2024-02-21T05:52:14;23.05;;;10.98;;
15968;SDS011;8085;53.472;9.794;2024-02-21T05:54:41;20.60;;;10.10;;
15968;SDS011;8085;53.472;9.794;2024-02-21T05:57:07;24.60;;;10.38;;
15968;SDS011;8085;53.472;9.794;2024-02-21T05:59:35;22.70;;;9.77;;
15968;SDS011;8085;53.472;9.794;2024-02-21T06:02:05;21.02;;;9.85;;
15968;SDS011;8085;53.472;9.794;2024-02-21T06:04:32;18.73;;;9.73;;
15968;SDS011;8085;53.472;9.794;2024-02-21T06:07:00;20.38;;;10.15;;
15968;SDS011;8085;53.472;9.794;2024-02-21T06:09:27;18.95;;;9.25;;
15968;SDS011;8085;53.472;9.794;2024-02-21T06:11:54;16.75;;;8.77;;
15968;SDS011;8085;53.472;9.794;2024-02-21T06:14:21;19.45;;;9.45;;
15968;SDS011;8085;53.472;9.794;2024-02-21T06:16:48;16.58;;;8.23;;
15968;SDS011;8085;53.472;9.794;2024-02-21T06:19:14;18.52;;;8.40;;
15968;SDS011;8085;53.472;9.794;2024-02-21T06:21:41;17.90;;;8.65;;
15968;SDS011;8085;53.472;9.794;2024-02-21T06:24:10;15.88;;;8.02;;
15968;SDS011;8085;53.472;9.794;2024-02-21T06:26:37;14.73;;;8.30;;
15968;SDS011;8085;53.472;9.794;2024-02-21T06:29:05;13.68;;;6.75;;
15968;SDS011;8085;53.472;9.794;2024-02-21T06:31:32;14.27;;;8.02;;
15968;SDS011;8085;53.472;9.794;2024-02-21T06:33:59;16.15;;;7.82;;
15968;SDS011;8085;53.472;9.794;2024-02-21T06:36:26;14.95;;;7.55;;
15968;SDS011;8085;53.472;9.794;2024-02-21T06:38:52;16.50;;;7.82;;
15968;SDS011;8085;53.472;9.794;2024-02-21T06:41:21;14.57;;;7.57;;
15968;SDS011;8085;53.472;9.794;2024-02-21T06:43:48;13.38;;;7.50;;
15968;SDS011;8085;53.472;9.794;2024-02-21T06:46:22;12.93;;;7.55;;
15968;SDS011;8085;53.472;9.794;2024-02-21T06:48:50;15.02;;;8.10;;
15968;SDS011;8085;53.472;9.794;2024-02-21T06:51:17;14.38;;;7.55;;
15968;SDS011;8085;53.472;9.794;2024-02-21T06:53:44;14.27;;;7.55;;
15968;SDS011;8085;53.472;9.794;2024-02-21T06:56:11;15.75;;;7.68;;
15968;SDS011;8085;53.472;9.794;2024-02-21T06:58:39;15.30;;;7.78;;
15968;SDS011;8085;53.472;9.794;2024-02-21T07:01:06;15.00;;;7.35;;
15968;SDS011;8085;53.472;9.794;2024-02-21T07:03:33;12.63;;;7.35;;
15968;SDS011;8085;53.472;9.794;2024-02-21T07:06:00;13.38;;;7.07;;
15968;SDS011;8085;53.472;9.794;2024-02-21T07:08:27;13.43;;;7.25;;
15968;SDS011;8085;53.472;9.794;2024-02-21T07:10:53;14.90;;;7.35;;
15968;SDS011;8085;53.472;9.794;2024-02-21T07:13:20;14.57;;;7.22;;
15968;SDS011;8085;53.472;9.794;2024-02-21T07:15:49;14.73;;;7.40;;
15968;SDS011;8085;53.472;9.794;2024-02-21T07:18:16;13.27;;;7.65;;
15968;SDS011;8085;53.472;9.794;2024-02-21T07:20:43;15.48;;;7.95;;
15968;SDS011;8085;53.472;9.794;2024-02-21T07:23:10;13.57;;;7.65;;
15968;SDS011;8085;53.472;9.794;2024-02-21T07:25:36;14.40;;;7.65;;
15968;SDS011;8085;53.472;9.794;2024-02-21T07:28:04;14.07;;;8.07;;
15968;SDS011;8085;53.472;9.794;2024-02-21T07:30:31;14.27;;;7.85;;
15968;SDS011;8085;53.472;9.794;2024-02-21T07:32:59;14.70;;;7.85;;
15968;SDS011;8085;53.472;9.794;2024-02-21T07:35:26;13.20;;;7.20;;
15968;SDS011;8085;53.472;9.794;2024-02-21T07:37:53;14.48;;;7.85;;
15968;SDS011;8085;53.472;9.794;2024-02-21T07:40:20;12.60;;;6.55;;
15968;SDS011;8085;53.472;9.794;2024-02-21T07:42:47;12.93;;;7.07;;
15968;SDS011;8085;53.472;9.794;2024-02-21T07:45:14;10.55;;;6.93;;
15968;SDS011;8085;53.472;9.794;2024-02-21T07:47:41;9.88;;;6.13;;
15968;SDS011;8085;53.472;9.794;2024-02-21T07:50:09;11.10;;;6.40;;
15968;SDS011;8085;53.472;9.794;2024-02-21T07:52:36;9.95;;;6.10;;
15968;SDS011;8085;53.472;9.794;2024-02-21T07:55:03;9.27;;;5.75;;
15968;SDS011;8085;53.472;9.794;2024-02-21T07:57:31;10.00;;;6.28;;
15968;SDS011;8085;53.472;9.794;2024-02-21T07:59:58;9.60;;;6.15;;
15968;SDS011;8085;53.472;9.794;2024-02-21T08:02:24;9.43;;;5.63;;
15968;SDS011;8085;53.472;9.794;2024-02-21T08:04:51;10.00;;;5.82;;
15968;SDS011;8085;53.472;9.794;2024-02-21T08:07:19;10.63;;;6.32;;
15968;SDS011;8085;53.472;9.794;2024-02-21T08:09:46;9.30;;;5.88;;
15968;SDS011;8085;53.472;9.794;2024-02-21T08:12:13;11.20;;;6.10;;
15968;SDS011;8085;53.472;9.794;2024-02-21T08:14:40;10.93;;;5.53;;
15968;SDS011;8085;53.472;9.794;2024-02-21T08:17:08;9.65;;;6.15;;
15968;SDS011;8085;53.472;9.794;2024-02-21T08:19:35;9.00;;;5.40;;
15968;SDS011;8085;53.472;9.794;2024-02-21T08:22:01;13.77;;;6.30;;
15968;SDS011;8085;53.472;9.794;2024-02-21T08:24:30;7.80;;;5.05;;
15968;SDS011;8085;53.472;9.794;2024-02-21T08:26:57;10.27;;;5.78;;
15968;SDS011;8085;53.472;9.794;2024-02-21T08:29:24;11.73;;;5.68;;
15968;SDS011;8085;53.472;9.794;2024-02-21T08:31:51;10.35;;;5.88;;
15968;SDS011;8085;53.472;9.794;2024-02-21T08:34:19;9.75;;;5.90;;
15968;SDS011;8085;53.472;9.794;2024-02-21T08:36:46;11.70;;;6.18;;
15968;SDS011;8085;53.472;9.794;2024-02-21T08:39:13;10.88;;;6.57;;
15968;SDS011;8085;53.472;9.794;2024-02-21T08:41:43;11.98;;;6.38;;
15968;SDS011;8085;53.472;9.794;2024-02-21T08:44:09;10.98;;;7.00;;
15968;SDS011;8085;53.472;9.794;2024-02-21T08:46:36;10.93;;;6.55;;
15968;SDS011;8085;53.472;9.794;2024-02-21T08:49:05;11.40;;;6.72;;
15968;SDS011;8085;53.472;9.794;2024-02-21T08:51:32;12.25;;;6.88;;
15968;SDS011;8085;53.472;9.794;2024-02-21T08:53:59;11.88;;;6.45;;
15968;SDS011;8085;53.472;9.794;2024-02-21T08:56:26;11.55;;;6.93;;
15968;SDS011;8085;53.472;9.794;2024-02-21T08:58:54;10.50;;;6.03;;
15968;SDS011;8085;53.472;9.794;2024-02-21T09:01:22;10.63;;;6.45;;
15968;SDS011;8085;53.472;9.794;2024-02-21T09:03:49;10.50;;;6.25;;
15968;SDS011;8085;53.472;9.794;2024-02-21T09:06:18;10.77;;;5.70;;
15968;SDS011;8085;53.472;9.794;2024-02-21T09:08:46;11.93;;;6.72;;
15968;SDS011;8085;53.472;9.794;2024-02-21T09:11:12;10.25;;;5.95;;
15968;SDS011;8085;53.472;9.794;2024-02-21T09:13:39;8.65;;;5.13;;
15968;SDS011;8085;53.472;9.794;2024-02-21T09:16:08;9.32;;;5.05;;
15968;SDS011;8085;53.472;9.794;2024-02-21T09:18:35;7.90;;;5.25;;
15968;SDS011;8085;53.472;9.794;2024-02-21T09:21:02;7.63;;;4.82;;
15968;SDS011;8085;53.472;9.794;2024-02-21T09:23:29;8.25;;;5.38;;
15968;SDS011;8085;53.472;9.794;2024-02-21T09:25:56;8.82;;;4.63;;
15968;SDS011;8085;53.472;9.794;2024-02-21T09:28:25;7.43;;;4.55;;
15968;SDS011;8085;53.472;9.794;2024-02-21T09:30:52;8.18;;;5.00;;
15968;SDS011;8085;53.472;9.794;2024-02-21T09:33:20;9.30;;;5.30;;
15968;SDS011;8085;53.472;9.794;2024-02-21T09:35:47;9.68;;;5.95;;
15968;SDS011;8085;53.472;9.794;2024-02-21T09:38:14;12.38;;;6.10;;
15968;SDS011;8085;53.472;9.794;2024-02-21T09:40:41;12.13;;;6.85;;
15968;SDS011;8085;53.472;9.794;2024-02-21T09:43:08;14.05;;;6.88;;
15968;SDS011;8085;53.472;9.794;2024-02-21T09:45:35;14.00;;;7.50;;
15968;SDS011;8085;53.472;9.794;2024-02-21T09:48:19;14.30;;;7.30;;
15968;SDS011;8085;53.472;9.794;2024-02-21T09:50:56;16.90;;;8.05;;
15968;SDS011;8085;53.472;9.794;2024-02-21T09:53:25;18.02;;;8.88;;
15968;SDS011;8085;53.472;9.794;2024-02-21T09:55:53;16.70;;;8.55;;
15968;SDS011;8085;53.472;9.794;2024-02-21T09:58:21;17.58;;;8.18;;
15968;SDS011;8085;53.472;9.794;2024-02-21T10:00:51;21.95;;;9.50;;
15968;SDS011;8085;53.472;9.794;2024-02-21T10:03:18;22.20;;;10.25;;
15968;SDS011;8085;53.472;9.794;2024-02-21T10:05:47;19.02;;;9.05;;
15968;SDS011;8085;53.472;9.794;2024-02-21T10:10:42;22.58;;;9.85;;
15968;SDS011;8085;53.472;9.794;2024-02-21T10:13:09;22.50;;;10.13;;
15968;SDS011;8085;53.472;9.794;2024-02-21T10:15:37;26.35;;;11.25;;
15968;SDS011;8085;53.472;9.794;2024-02-21T10:18:04;27.75;;;10.75;;
15968;SDS011;8085;53.472;9.794;2024-02-21T10:20:31;27.48;;;10.93;;
15968;SDS011;8085;53.472;9.794;2024-02-21T10:23:04;26.10;;;11.20;;
15968;SDS011;8085;53.472;9.794;2024-02-21T10:25:34;25.98;;;11.60;;
15968;SDS011;8085;53.472;9.794;2024-02-21T10:28:03;26.92;;;11.48;;
15968;SDS011;8085;53.472;9.794;2024-02-21T10:30:30;29.08;;;11.27;;
15968;SDS011;8085;53.472;9.794;2024-02-21T10:32:57;26.48;;;10.75;;
15968;SDS011;8085;53.472;9.794;2024-02-21T10:35:27;25.17;;;10.63;;
15968;SDS011;8085;53.472;9.794;2024-02-21T10:37:55;23.40;;;10.10;;
15968;SDS011;8085;53.472;9.794;2024-02-21T10:40:27;26.33;;;10.32;;
15968;SDS011;8085;53.472;9.794;2024-02-21T10:42:56;21.73;;;10.68;;
15968;SDS011;8085;53.472;9.794;2024-02-21T10:45:28;24.70;;;9.45;;
15968;SDS011;8085;53.472;9.794;2024-02-21T10:48:00;21.63;;;8.77;;
15968;SDS011;8085;53.472;9.794;2024-02-21T10:50:43;16.73;;;7.82;;
15968;SDS011;8085;53.472;9.794;2024-02-21T10:53:35;19.73;;;8.68;;
15968;SDS011;8085;53.472;9.794;2024-02-21T10:56:11;19.63;;;8.90;;
15968;SDS011;8085;53.472;9.794;2024-02-21T10:58:48;22.33;;;8.23;;
15968;SDS011;8085;53.472;9.794;2024-02-21T11:01:15;19.67;;;8.30;;
15968;SDS011;8085;53.472;9.794;2024-02-21T11:03:46;14.98;;;7.80;;
15968;SDS011;8085;53.472;9.794;2024-02-21T11:06:15;21.08;;;8.27;;
15968;SDS011;8085;53.472;9.794;2024-02-21T11:08:43;17.90;;;7.55;;
15968;SDS011;8085;53.472;9.794;2024-02-21T11:11:13;18.75;;;7.97;;
15968;SDS011;8085;53.472;9.794;2024-02-21T11:13:43;18.33;;;7.20;;
15968;SDS011;8085;53.472;9.794;2024-02-21T11:16:12;14.13;;;6.63;;
15968;SDS011;8085;53.472;9.794;2024-02-21T11:18:49;16.42;;;6.68;;
15968;SDS011;8085;53.472;9.794;2024-02-21T11:21:16;13.07;;;6.45;;
15968;SDS011;8085;53.472;9.794;2024-02-21T11:23:42;15.40;;;6.82;;
15968;SDS011;8085;53.472;9.794;2024-02-21T11:26:09;15.38;;;6.82;;
15968;SDS011;8085;53.472;9.794;2024-02-21T11:28:55;15.50;;;6.82;;
15968;SDS011;8085;53.472;9.794;2024-02-21T11:31:22;13.27;;;6.35;;
15968;SDS011;8085;53.472;9.794;2024-02-21T11:33:50;12.85;;;6.53;;
15968;SDS011;8085;53.472;9.794;2024-02-21T11:36:23;13.73;;;6.28;;
15968;SDS011;8085;53.472;9.794;2024-02-21T11:38:51;16.80;;;6.63;;
15968;SDS011;8085;53.472;9.794;2024-02-21T11:41:18;14.10;;;6.68;;
15968;SDS011;8085;53.472;9.794;2024-02-21T11:43:47;17.23;;;6.65;;
15968;SDS011;8085;53.472;9.794;2024-02-21T11:46:15;17.40;;;7.47;;
15968;SDS011;8085;53.472;9.794;2024-02-21T11:48:42;12.50;;;6.47;;
15968;SDS011;8085;53.472;9.794;2024-02-21T11:51:20;16.92;;;6.82;;
15968;SDS011;8085;53.472;9.794;2024-02-21T11:53:50;15.85;;;7.22;;
15968;SDS011;8085;53.472;9.794;2024-02-21T11:56:17;18.00;;;7.50;;
15968;SDS011;8085;53.472;9.794;2024-02-21T11:58:46;16.33;;;7.28;;
15968;SDS011;8085;53.472;9.794;2024-02-21T12:01:13;20.85;;;7.40;;
15968;SDS011;8085;53.472;9.794;2024-02-21T12:03:40;15.02;;;6.82;;
15968;SDS011;8085;53.472;9.794;2024-02-21T12:06:14;16.17;;;6.82;;
15968;SDS011;8085;53.472;9.794;2024-02-21T12:08:44;18.73;;;7.45;;
15968;SDS011;8085;53.472;9.794;2024-02-21T12:11:15;14.13;;;7.13;;
15968;SDS011;8085;53.472;9.794;2024-02-21T12:13:44;18.98;;;8.27;;
15968;SDS011;8085;53.472;9.794;2024-02-21T12:16:14;21.10;;;7.88;;
15968;SDS011;8085;53.472;9.794;2024-02-21T12:18:43;19.15;;;8.25;;
15968;SDS011;8085;53.472;9.794;2024-02-21T12:21:10;18.10;;;7.63;;
15968;SDS011;8085;53.472;9.794;2024-02-21T12:23:37;19.33;;;8.35;;
15968;SDS011;8085;53.472;9.794;2024-02-21T12:26:04;23.63;;;7.82;;
15968;SDS011;8085;53.472;9.794;2024-02-21T12:28:33;16.48;;;7.72;;
15968;SDS011;8085;53.472;9.794;2024-02-21T12:31:01;21.17;;;8.38;;
15968;SDS011;8085;53.472;9.794;2024-02-21T12:33:29;21.42;;;8.10;;
15968;SDS011;8085;53.472;9.794;2024-02-21T12:35:56;21.77;;;8.65;;
15968;SDS011;8085;53.472;9.794;2024-02-21T12:38:23;18.38;;;9.02;;
15968;SDS011;8085;53.472;9.794;2024-02-21T12:40:50;20.02;;;8.50;;
15968;SDS011;8085;53.472;9.794;2024-02-21T12:43:17;18.15;;;8.63;;
15968;SDS011;8085;53.472;9.794;2024-02-21T12:45:44;20.58;;;8.20;;
15968;SDS011;8085;53.472;9.794;2024-02-21T12:48:13;17.48;;;8.38;;
15968;SDS011;8085;53.472;9.794;2024-02-21T12:50:40;16.83;;;7.82;;
15968;SDS011;8085;53.472;9.794;2024-02-21T12:53:10;20.58;;;8.63;;
15968;SDS011;8085;53.472;9.794;2024-02-21T12:55:37;16.92;;;8.25;;
15968;SDS011;8085;53.472;9.794;2024-02-21T12:58:04;20.15;;;8.52;;
15968;SDS011;8085;53.472;9.794;2024-02-21T13:00:32;19.25;;;7.95;;
15968;SDS011;8085;53.472;9.794;2024-02-21T13:03:00;18.27;;;7.65;;
15968;SDS011;8085;53.472;9.794;2024-02-21T13:05:29;15.85;;;7.35;;
15968;SDS011;8085;53.472;9.794;2024-02-21T13:07:57;14.68;;;7.07;;
15968;SDS011;8085;53.472;9.794;2024-02-21T13:10:24;17.35;;;7.57;;
15968;SDS011;8085;53.472;9.794;2024-02-21T13:12:51;16.58;;;6.80;;
15968;SDS011;8085;53.472;9.794;2024-02-21T13:15:19;19.83;;;7.03;;
15968;SDS011;8085;53.472;9.794;2024-02-21T13:17:46;15.00;;;6.82;;
15968;SDS011;8085;53.472;9.794;2024-02-21T13:20:13;17.35;;;6.45;;
15968;SDS011;8085;53.472;9.794;2024-02-21T13:22:42;16.42;;;7.45;;
15968;SDS011;8085;53.472;9.794;2024-02-21T13:25:08;13.80;;;6.53;;
15968;SDS011;8085;53.472;9.794;2024-02-21T13:27:35;13.02;;;6.78;;
15968;SDS011;8085;53.472;9.794;2024-02-21T13:30:02;14.75;;;6.30;;
15968;SDS011;8085;53.472;9.794;2024-02-21T13:32:32;12.93;;;6.30;;
15968;SDS011;8085;53.472;9.794;2024-02-21T13:34:58;12.95;;;6.53;;
15968;SDS011;8085;53.472;9.794;2024-02-21T13:37:26;9.98;;;5.82;;
15968;SDS011;8085;53.472;9.794;2024-02-21T13:39:55;11.50;;;6.65;;
15968;SDS011;8085;53.472;9.794;2024-02-21T13:42:22;14.02;;;6.63;;
15968;SDS011;8085;53.472;9.794;2024-02-21T13:44:50;11.60;;;5.68;;
15968;SDS011;8085;53.472;9.794;2024-02-21T13:47:17;14.23;;;5.90;;
15968;SDS011;8085;53.472;9.794;2024-02-21T13:49:44;10.98;;;5.82;;
15968;SDS011;8085;53.472;9.794;2024-02-21T13:52:11;12.90;;;6.07;;
15968;SDS011;8085;53.472;9.794;2024-02-21T13:54:37;11.43;;;5.68;;
15968;SDS011;8085;53.472;9.794;2024-02-21T13:57:06;13.95;;;6.28;;
15968;SDS011;8085;53.472;9.794;2024-02-21T13:59:33;11.75;;;5.32;;
15968;SDS011;8085;53.472;9.794;2024-02-21T14:01:59;11.55;;;4.95;;
15968;SDS011;8085;53.472;9.794;2024-02-21T14:04:26;14.23;;;5.80;;
15968;SDS011;8085;53.472;9.794;2024-02-21T14:06:55;10.52;;;4.78;;
15968;SDS011;8085;53.472;9.794;2024-02-21T14:09:22;13.25;;;5.35;;
15968;SDS011;8085;53.472;9.794;2024-02-21T14:11:49;15.38;;;5.20;;
15968;SDS011;8085;53.472;9.794;2024-02-21T14:14:17;11.20;;;5.05;;
15968;SDS011;8085;53.472;9.794;2024-02-21T14:16:44;11.75;;;5.03;;
15968;SDS011;8085;53.472;9.794;2024-02-21T14:19:12;9.35;;;4.45;;
15968;SDS011;8085;53.472;9.794;2024-02-21T14:21:39;13.70;;;5.82;;
15968;SDS011;8085;53.472;9.794;2024-02-21T14:24:06;11.85;;;4.90;;
15968;SDS011;8085;53.472;9.794;2024-02-21T14:26:33;9.98;;;4.80;;
15968;SDS011;8085;53.472;9.794;2024-02-21T14:29:01;10.90;;;4.70;;
15968;SDS011;8085;53.472;9.794;2024-02-21T14:31:30;10.13;;;4.57;;
15968;SDS011;8085;53.472;9.794;2024-02-21T14:33:58;10.45;;;4.35;;
15968;SDS011;8085;53.472;9.794;2024-02-21T14:36:25;18.60;;;5.03;;
15968;SDS011;8085;53.472;9.794;2024-02-21T14:38:52;10.27;;;4.20;;
15968;SDS011;8085;53.472;9.794;2024-02-21T14:41:19;7.63;;;4.10;;
15968;SDS011;8085;53.472;9.794;2024-02-21T14:43:46;7.60;;;4.03;;
15968;SDS011;8085;53.472;9.794;2024-02-21T14:46:13;5.45;;;3.53;;
15968;SDS011;8085;53.472;9.794;2024-02-21T14:48:41;10.02;;;4.05;;